createdAt,value
2019-05-07T00:02:17.496Z,7.61
2019-05-07T00:04:44.963Z,7.63
2019-05-07T00:07:13.054Z,7.68
2019-05-07T00:09:39.927Z,7.59
2019-05-07T00:12:07.355Z,7.67
2019-05-07T00:14:34.906Z,7.78
2019-05-07T00:17:04.425Z,7.45
2019-05-07T00:19:32.393Z,7.43
2019-05-07T00:21:58.378Z,7.36
2019-05-07T00:24:25.972Z,7.28
2019-05-07T00:26:53.463Z,7.42
2019-05-07T00:29:22.388Z,7.37
2019-05-07T00:31:48.367Z,7.27
2019-05-07T00:34:15.823Z,7.42
2019-05-07T00:36:44.612Z,7.65
2019-05-07T00:39:12.405Z,7.56
2019-05-07T00:41:42.877Z,7.84
2019-05-07T00:44:10.391Z,7.64
2019-05-07T00:46:37.846Z,7.52
2019-05-07T00:49:05.278Z,7.45
2019-05-07T00:51:33.707Z,7.55
2019-05-07T00:54:02.841Z,7.67
2019-05-07T00:56:29.165Z,7.37
2019-05-07T00:58:56.631Z,7.52
2019-05-07T01:01:24.063Z,7.56
2019-05-07T01:03:53.334Z,7.44
2019-05-07T01:06:18.974Z,7.24
2019-05-07T01:08:46.439Z,7.36
2019-05-07T01:11:13.871Z,7.64
2019-05-07T01:13:43.132Z,7.70
2019-05-07T01:16:08.792Z,7.76
2019-05-07T01:18:36.265Z,7.69
2019-05-07T01:21:03.706Z,7.68
2019-05-07T01:23:32.324Z,7.70
2019-05-07T01:25:59.710Z,7.60
2019-05-07T01:28:27.205Z,7.54
2019-05-07T01:30:54.658Z,7.61
2019-05-07T01:33:22.765Z,7.33
2019-05-07T01:35:55.664Z,7.58
2019-05-07T01:38:23.092Z,7.75
2019-05-07T01:40:52.082Z,7.94
2019-05-07T01:43:17.980Z,7.66
2019-05-07T01:45:49.480Z,7.89
2019-05-07T01:48:12.875Z,8.14
2019-05-07T01:50:42.798Z,8.14
2019-05-07T01:53:07.830Z,8.18
2019-05-07T01:55:35.256Z,8.25
2019-05-07T01:58:04.738Z,8.32
2019-05-07T02:00:30.224Z,8.33
2019-05-07T02:02:59.501Z,8.52
2019-05-07T02:05:35.816Z,8.39
2019-05-07T02:08:04.200Z,8.23
2019-05-07T02:10:35.127Z,8.31
2019-05-07T02:13:03.028Z,8.18
2019-05-07T02:15:32.292Z,8.30
2019-05-07T02:17:58.227Z,8.54
2019-05-07T02:20:25.712Z,8.47
2019-05-07T02:22:53.363Z,8.50
2019-05-07T02:25:22.122Z,8.37
2019-05-07T02:27:48.181Z,8.43
2019-05-07T02:30:15.644Z,8.20
2019-05-07T02:32:43.572Z,7.99
2019-05-07T02:35:13.614Z,7.75
2019-05-07T02:37:48.444Z,7.73
2019-05-07T02:40:09.414Z,7.66
2019-05-07T02:42:36.866Z,7.56
2019-05-07T02:45:18.155Z,7.42
2019-05-07T02:47:45.627Z,7.64
2019-05-07T02:50:27.963Z,7.52
2019-05-07T02:52:57.799Z,7.47
2019-05-07T02:55:33.441Z,7.24
2019-05-07T02:57:58.334Z,7.28
2019-05-07T03:00:25.778Z,7.18
2019-05-07T03:02:53.474Z,7.00
2019-05-07T03:05:22.948Z,7.04
2019-05-07T03:07:49.347Z,6.95
2019-05-07T03:10:16.891Z,7.08
2019-05-07T03:12:44.334Z,6.84
2019-05-07T03:15:13.235Z,6.86
2019-05-07T03:17:39.285Z,6.95
2019-05-07T03:20:06.750Z,6.68
2019-05-07T03:22:34.498Z,6.79
2019-05-07T03:25:05.530Z,6.82
2019-05-07T03:27:34.052Z,7.01
2019-05-07T03:30:04.208Z,6.80
2019-05-07T03:32:29.841Z,6.61
2019-05-07T03:34:59.010Z,6.85
2019-05-07T03:37:26.460Z,6.71
2019-05-07T03:39:53.989Z,6.73
2019-05-07T03:42:23.626Z,6.67
2019-05-07T03:44:48.945Z,6.89
2019-05-07T03:47:16.779Z,6.58
2019-05-07T03:49:44.226Z,6.89
2019-05-07T03:52:13.694Z,7.10
2019-05-07T03:54:39.120Z,7.45
2019-05-07T03:57:11.419Z,7.68
2019-05-07T03:59:34.499Z,7.83
2019-05-07T04:02:03.317Z,7.77
2019-05-07T04:04:29.064Z,7.83
2019-05-07T04:06:58.741Z,7.88
2019-05-07T04:09:26.232Z,7.54
2019-05-07T04:11:53.670Z,7.45
2019-05-07T04:14:23.174Z,7.14
2019-05-07T04:16:48.609Z,7.07
2019-05-07T04:19:16.137Z,7.18
2019-05-07T04:21:43.646Z,7.25
2019-05-07T04:24:25.942Z,7.22
2019-05-07T04:26:59.025Z,7.31
2019-05-07T04:29:26.511Z,7.40
2019-05-07T04:31:53.961Z,7.32
2019-05-07T04:34:23.769Z,7.29
2019-05-07T04:36:53.225Z,7.54
2019-05-07T04:39:17.851Z,7.69
2019-05-07T04:41:45.294Z,7.60
2019-05-07T04:44:14.090Z,7.85
2019-05-07T04:46:43.764Z,7.90
2019-05-07T04:49:07.695Z,7.73
2019-05-07T04:51:35.157Z,7.79
2019-05-07T04:54:03.613Z,7.63
2019-05-07T04:56:30.091Z,7.71
2019-05-07T04:58:57.584Z,7.99
2019-05-07T05:01:25.031Z,7.83
2019-05-07T05:03:54.105Z,7.93
2019-05-07T05:06:20.258Z,7.78
2019-05-07T05:08:47.718Z,7.78
2019-05-07T05:11:15.194Z,8.00
2019-05-07T05:13:44.468Z,8.20
2019-05-07T05:16:15.780Z,8.24
2019-05-07T05:21:16.804Z,8.44
2019-05-07T05:23:45.115Z,8.46
2019-05-07T05:26:12.647Z,8.27
2019-05-07T05:28:41.887Z,7.96
2019-05-07T05:31:07.505Z,7.73
2019-05-07T05:33:34.964Z,7.46
2019-05-07T05:36:03.071Z,7.58
2019-05-07T05:38:29.857Z,7.27
2019-05-07T05:40:57.292Z,7.50
2019-05-07T05:43:26.025Z,7.75
2019-05-07T05:45:54.256Z,7.95
2019-05-07T05:48:22.409Z,8.22
2019-05-07T05:50:49.206Z,8.31
2019-05-07T05:53:27.447Z,8.20
2019-05-07T05:55:54.921Z,8.33
2019-05-07T06:01:14.365Z,7.96
2019-05-07T06:04:03.046Z,8.28
2019-05-07T06:06:45.005Z,8.20
2019-05-07T06:09:18.866Z,7.91
2019-05-07T06:11:46.301Z,8.09
2019-05-07T06:14:18.597Z,8.45
2019-05-07T06:16:46.287Z,8.65
2019-05-07T06:19:16.191Z,8.61
2019-05-07T06:21:49.174Z,8.76
2019-05-07T06:24:18.458Z,8.82
2019-05-07T06:26:46.069Z,8.54
2019-05-07T06:29:13.549Z,8.71
2019-05-07T06:31:42.222Z,8.62
2019-05-07T06:34:08.809Z,8.75
2019-05-07T06:36:36.269Z,8.67
2019-05-07T06:39:22.150Z,8.66
2019-05-07T06:41:54.291Z,8.95
2019-05-07T06:44:22.377Z,8.90
2019-05-07T06:46:49.383Z,9.15
2019-05-07T06:49:16.803Z,8.95
2019-05-07T06:51:44.248Z,8.65
2019-05-07T06:54:13.014Z,8.67
2019-05-07T06:56:39.302Z,8.71
2019-05-07T06:59:06.779Z,9.06
2019-05-07T07:01:37.619Z,9.03
2019-05-07T07:04:06.870Z,8.93
2019-05-07T07:06:39.882Z,9.24
2019-05-07T07:09:09.157Z,9.19
2019-05-07T07:11:36.659Z,8.63
2019-05-07T07:14:04.114Z,8.60
2019-05-07T07:16:32.599Z,8.95
2019-05-07T07:18:59.112Z,9.20
2019-05-07T07:21:26.687Z,9.16
2019-05-07T07:23:54.146Z,9.28
2019-05-07T07:26:22.201Z,9.23
2019-05-07T07:28:49.105Z,9.40
2019-05-07T07:31:26.471Z,9.37
2019-05-07T07:33:53.915Z,9.53
2019-05-07T07:36:22.565Z,9.09
2019-05-07T07:38:48.929Z,9.01
2019-05-07T07:41:32.752Z,9.08
2019-05-07T07:44:02.082Z,9.11
2019-05-07T07:46:28.403Z,9.12
2019-05-07T07:49:06.743Z,9.50
2019-05-07T07:51:37.239Z,9.28
2019-05-07T07:53:52.020Z,9.20
2019-05-07T07:56:23.841Z,9.74
2019-05-07T07:58:52.655Z,9.92
2019-05-07T08:01:37.960Z,9.42
2019-05-07T08:04:05.413Z,9.66
2019-05-07T08:06:32.835Z,9.49
2019-05-07T08:09:02.141Z,9.86
2019-05-07T08:11:27.743Z,10.10
2019-05-07T08:13:55.234Z,10.07
2019-05-07T08:16:22.665Z,9.62
2019-05-07T08:18:52.158Z,9.39
2019-05-07T08:21:17.640Z,9.56
2019-05-07T08:23:45.135Z,9.63
2019-05-07T08:26:12.785Z,9.73
2019-05-07T08:28:41.918Z,9.42
2019-05-07T08:31:07.589Z,9.55
2019-05-07T08:33:35.490Z,10.03
2019-05-07T08:36:11.977Z,10.10
2019-05-07T08:38:43.698Z,10.24
2019-05-07T08:41:12.031Z,10.23
2019-05-07T08:43:39.155Z,10.47
2019-05-07T08:46:12.297Z,10.28
2019-05-07T08:48:39.791Z,10.01
2019-05-07T08:51:07.245Z,10.15
2019-05-07T08:53:34.736Z,10.50
2019-05-07T08:56:03.215Z,10.35
2019-05-07T08:58:31.592Z,10.29
2019-05-07T09:00:57.351Z,10.02
2019-05-07T09:03:32.323Z,10.30
2019-05-07T09:05:57.986Z,10.51
2019-05-07T09:08:25.462Z,10.12
2019-05-07T09:10:52.952Z,10.41
2019-05-07T09:13:22.545Z,10.63
2019-05-07T09:15:47.884Z,10.68
2019-05-07T09:18:15.337Z,10.27
2019-05-07T09:20:42.898Z,10.06
2019-05-07T09:23:12.072Z,10.13
2019-05-07T09:25:37.963Z,10.02
2019-05-07T09:28:05.456Z,10.01
2019-05-07T09:30:38.491Z,10.54
2019-05-07T09:33:07.429Z,10.35
2019-05-07T09:35:34.938Z,10.18
2019-05-07T09:38:03.175Z,10.66
2019-05-07T09:40:31.889Z,10.70
2019-05-07T09:42:57.361Z,10.32
2019-05-07T09:45:24.810Z,10.46
2019-05-07T09:47:52.369Z,10.68
2019-05-07T09:50:22.021Z,10.32
2019-05-07T09:52:47.735Z,10.43
2019-05-07T09:55:17.550Z,10.83
2019-05-07T09:57:42.700Z,10.99
2019-05-07T10:00:12.144Z,11.13
2019-05-07T10:02:37.563Z,10.66
2019-05-07T10:05:05.007Z,10.33
2019-05-07T10:07:32.670Z,10.56
2019-05-07T10:09:59.931Z,10.92
2019-05-07T10:12:32.912Z,10.87
2019-05-07T10:14:58.697Z,11.14
2019-05-07T10:17:27.092Z,10.73
2019-05-07T10:19:55.488Z,11.02
2019-05-07T10:22:23.005Z,11.18
2019-05-07T10:24:52.210Z,11.38
2019-05-07T10:27:18.977Z,11.00
2019-05-07T10:29:46.425Z,11.19
2019-05-07T10:32:13.867Z,11.42
2019-05-07T10:34:42.238Z,11.34
2019-05-07T10:37:08.799Z,11.18
2019-05-07T10:39:36.278Z,10.80
2019-05-07T10:42:03.725Z,10.68
2019-05-07T10:44:32.125Z,10.58
2019-05-07T10:47:04.925Z,11.14
2019-05-07T10:49:36.910Z,11.33
2019-05-07T10:52:04.363Z,11.50
2019-05-07T10:54:31.811Z,11.17
2019-05-07T10:56:59.270Z,11.08
2019-05-07T10:59:26.721Z,11.30
2019-05-07T11:01:54.618Z,11.50
2019-05-07T11:04:22.115Z,11.14
2019-05-07T11:06:49.564Z,11.49
2019-05-07T11:09:17.061Z,11.08
2019-05-07T11:11:44.514Z,11.19
2019-05-07T11:14:12.301Z,11.23
2019-05-07T11:16:52.051Z,11.43
2019-05-07T11:19:19.016Z,11.01
2019-05-07T11:21:45.271Z,10.94
2019-05-07T11:24:12.813Z,10.67
2019-05-07T11:26:42.005Z,9.99
2019-05-07T11:29:07.744Z,10.01
2019-05-07T11:31:35.195Z,10.50
2019-05-07T11:34:03.139Z,10.44
2019-05-07T11:36:31.954Z,10.36
2019-05-07T11:38:58.087Z,10.12
2019-05-07T11:41:29.313Z,10.00
2019-05-07T11:43:56.783Z,10.23
2019-05-07T11:46:24.233Z,10.46
2019-05-07T11:48:51.719Z,10.52
2019-05-07T11:51:38.084Z,10.18
2019-05-07T11:54:07.453Z,10.39
2019-05-07T11:56:34.871Z,10.62
2019-05-07T11:59:02.821Z,10.62
2019-05-07T12:01:41.565Z,10.75
2019-05-07T12:03:57.603Z,10.66
2019-05-07T12:06:25.115Z,10.51
2019-05-07T12:08:54.091Z,10.26
2019-05-07T12:11:21.913Z,10.83
2019-05-07T12:13:49.324Z,10.48
2019-05-07T12:16:16.795Z,10.74
2019-05-07T12:18:44.253Z,11.14
2019-05-07T12:21:20.214Z,11.17
2019-05-07T12:23:39.253Z,11.00
2019-05-07T12:26:06.724Z,11.19
2019-05-07T12:28:34.199Z,11.56
2019-05-07T12:31:02.055Z,11.45
2019-05-07T12:33:44.399Z,11.53
2019-05-07T12:36:12.571Z,11.84
2019-05-07T12:38:39.362Z,11.99
2019-05-07T12:41:12.847Z,11.50
2019-05-07T12:43:39.846Z,11.50
2019-05-07T12:46:07.293Z,11.88
2019-05-07T12:48:34.710Z,12.03
2019-05-07T12:51:02.155Z,11.96
2019-05-07T12:53:35.138Z,12.04
2019-05-07T12:56:02.598Z,12.00
2019-05-07T12:58:32.137Z,11.85
2019-05-07T13:00:58.993Z,11.86
2019-05-07T13:03:32.414Z,12.21
2019-05-07T13:05:59.876Z,12.44
2019-05-07T13:08:27.327Z,12.50
2019-05-07T13:10:54.778Z,12.28
2019-05-07T13:13:22.234Z,11.98
2019-05-07T13:15:51.664Z,12.42
2019-05-07T13:18:17.183Z,11.84
2019-05-07T13:20:44.622Z,11.98
2019-05-07T13:23:12.089Z,11.79
2019-05-07T13:25:39.503Z,11.99
2019-05-07T13:28:06.970Z,12.17
2019-05-07T13:30:34.389Z,12.26
2019-05-07T13:33:02.076Z,12.12
2019-05-07T13:35:29.321Z,11.94
2019-05-07T13:38:11.818Z,12.05
2019-05-07T13:40:57.006Z,12.35
2019-05-07T13:43:26.903Z,12.35
2019-05-07T13:46:12.132Z,12.47
2019-05-07T13:48:38.648Z,12.52
2019-05-07T13:51:06.112Z,12.64
2019-05-07T13:53:33.638Z,12.28
2019-05-07T13:56:02.334Z,12.39
2019-05-07T13:58:28.641Z,12.62
2019-05-07T14:01:08.827Z,12.29
2019-05-07T14:03:36.287Z,12.26
2019-05-07T14:06:04.561Z,12.49
2019-05-07T14:08:32.062Z,12.65
2019-05-07T14:10:58.671Z,12.73
2019-05-07T14:13:26.206Z,12.29
2019-05-07T14:16:12.088Z,12.65
2019-05-07T14:18:37.923Z,12.46
2019-05-07T14:21:05.496Z,12.61
2019-05-07T14:23:33.077Z,12.63
2019-05-07T14:26:01.961Z,12.60
2019-05-07T14:28:27.976Z,12.85
2019-05-07T14:30:55.459Z,13.03
2019-05-07T14:33:28.495Z,12.81
2019-05-07T14:35:58.454Z,12.56
2019-05-07T14:38:25.929Z,12.84
2019-05-07T14:40:53.377Z,12.42
2019-05-07T14:43:22.011Z,12.54
2019-05-07T14:45:49.581Z,12.15
2019-05-07T14:48:17.072Z,12.50
2019-05-07T14:50:44.985Z,12.59
2019-05-07T14:53:12.510Z,12.20
2019-05-07T14:55:41.798Z,12.73
2019-05-07T14:58:07.511Z,12.99
2019-05-07T15:00:35.380Z,12.89
2019-05-07T15:03:02.454Z,12.91
2019-05-07T15:05:29.881Z,13.16
2019-05-07T15:08:08.336Z,13.24
2019-05-07T15:10:24.825Z,13.22
2019-05-07T15:15:27.954Z,13.27
2019-05-07T15:17:56.843Z,13.37
2019-05-07T15:20:24.364Z,13.46
2019-05-07T15:22:53.798Z,13.41
2019-05-07T15:25:22.725Z,13.32
2019-05-07T15:27:49.655Z,13.04
2019-05-07T15:30:17.114Z,12.69
2019-05-07T15:32:44.535Z,12.61
2019-05-07T15:35:12.598Z,12.83
2019-05-07T15:37:39.512Z,12.98
2019-05-07T15:40:06.951Z,12.97
2019-05-07T15:42:34.402Z,12.52
2019-05-07T15:45:02.262Z,12.32
2019-05-07T15:47:31.663Z,12.66
2019-05-07T15:49:57.581Z,12.97
2019-05-07T15:52:32.593Z,13.07
2019-05-07T15:54:58.114Z,12.73
2019-05-07T15:57:26.062Z,12.81
2019-05-07T15:59:53.479Z,13.00
2019-05-07T16:02:24.811Z,13.19
2019-05-07T16:04:52.293Z,13.31
2019-05-07T16:07:22.501Z,13.30
2019-05-07T16:09:47.908Z,13.19
2019-05-07T16:12:15.376Z,12.97
2019-05-07T16:14:42.878Z,12.97
2019-05-07T16:17:10.376Z,12.56
2019-05-07T16:19:37.814Z,12.51
2019-05-07T16:22:05.253Z,12.68
2019-05-07T16:24:32.698Z,12.67
2019-05-07T16:27:02.623Z,12.31
2019-05-07T16:29:27.593Z,12.52
2019-05-07T16:31:55.026Z,12.50
2019-05-07T16:34:24.590Z,12.68
2019-05-07T16:36:49.967Z,12.58
2019-05-07T16:39:17.411Z,12.64
2019-05-07T16:41:44.869Z,13.00
2019-05-07T16:44:12.488Z,13.09
2019-05-07T16:46:41.951Z,13.42
2019-05-07T16:49:07.219Z,13.47
2019-05-07T16:51:34.650Z,13.41
2019-05-07T16:54:03.416Z,13.07
2019-05-07T16:56:29.565Z,13.54
2019-05-07T16:58:57.901Z,13.50
2019-05-07T17:01:25.361Z,13.45
2019-05-07T17:03:56.331Z,13.61
2019-05-07T17:06:25.138Z,13.71
2019-05-07T17:09:04.324Z,13.88
2019-05-07T17:11:32.200Z,13.75
2019-05-07T17:13:59.261Z,13.75
2019-05-07T17:16:26.724Z,13.85
2019-05-07T17:18:54.148Z,13.77
2019-05-07T17:21:21.914Z,13.79
2019-05-07T17:23:49.354Z,13.74
2019-05-07T17:26:16.789Z,13.73
2019-05-07T17:28:44.251Z,13.75
2019-05-07T17:31:12.427Z,13.68
2019-05-07T17:33:39.136Z,13.68
2019-05-07T17:36:06.551Z,13.70
2019-05-07T17:38:34.029Z,13.75
2019-05-07T17:41:10.880Z,13.73
2019-05-07T17:43:28.964Z,13.74
2019-05-07T17:45:56.484Z,13.73
2019-05-07T17:48:23.921Z,13.70
2019-05-07T17:50:52.286Z,13.73
2019-05-07T17:53:19.758Z,13.62
2019-05-07T17:55:47.211Z,13.65
2019-05-07T17:58:16.066Z,13.27
2019-05-07T18:00:43.506Z,13.27
2019-05-07T18:03:13.261Z,13.38
2019-05-07T18:05:42.423Z,13.45
2019-05-07T18:08:08.224Z,13.32
2019-05-07T18:10:35.663Z,13.00
2019-05-07T18:13:03.114Z,13.23
2019-05-07T18:15:32.275Z,13.28
2019-05-07T18:18:02.859Z,13.31
2019-05-07T18:20:27.861Z,13.18
2019-05-07T18:22:55.323Z,13.04
2019-05-07T18:25:23.089Z,13.26
2019-05-07T18:27:52.558Z,13.04
2019-05-07T18:30:18.027Z,13.18
2019-05-07T18:32:47.246Z,13.17
2019-05-07T18:35:14.676Z,12.85
2019-05-07T18:37:47.807Z,12.97
2019-05-07T18:40:15.245Z,12.93
2019-05-07T18:42:42.686Z,12.87
2019-05-07T18:45:12.319Z,12.87
2019-05-07T18:47:37.640Z,12.93
2019-05-07T18:50:05.079Z,13.00
2019-05-07T18:52:32.538Z,12.53
2019-05-07T18:54:59.989Z,12.15
2019-05-07T18:57:27.543Z,12.53
2019-05-07T18:59:55.004Z,12.27
2019-05-07T19:02:22.648Z,12.28
2019-05-07T19:04:51.951Z,11.78
2019-05-07T19:07:17.325Z,12.23
2019-05-07T19:09:47.649Z,12.17
2019-05-07T19:12:13.049Z,11.74
2019-05-07T19:14:39.704Z,12.22
2019-05-07T19:17:07.167Z,12.09
2019-05-07T19:19:34.604Z,11.92
2019-05-07T19:22:02.231Z,11.64
2019-05-07T19:24:42.296Z,11.89
2019-05-07T19:26:57.007Z,11.91
2019-05-07T19:29:24.549Z,11.85
2019-05-07T19:31:52.611Z,11.61
2019-05-07T19:34:21.818Z,11.83
2019-05-07T19:36:47.864Z,11.72
2019-05-07T19:39:15.309Z,11.64
2019-05-07T19:41:43.087Z,11.39
2019-05-07T19:44:12.546Z,11.17
2019-05-07T19:46:37.734Z,11.32
2019-05-07T19:49:07.142Z,11.10
2019-05-07T19:51:32.615Z,11.31
2019-05-07T19:54:02.026Z,11.54
2019-05-07T19:56:28.277Z,11.38
2019-05-07T19:58:55.756Z,11.55
2019-05-07T20:01:23.970Z,11.72
2019-05-07T20:03:52.884Z,11.81
2019-05-07T20:06:18.908Z,11.87
2019-05-07T20:08:46.341Z,11.90
2019-05-07T20:11:14.395Z,11.97
2019-05-07T20:13:43.755Z,12.00
2019-05-07T20:16:24.124Z,11.83
2019-05-07T20:18:52.538Z,11.82
2019-05-07T20:21:19.811Z,11.48
2019-05-07T20:23:47.540Z,11.53
2019-05-07T20:26:14.979Z,11.52
2019-05-07T20:28:42.495Z,11.45
2019-05-07T20:33:43.736Z,11.12
2019-05-07T20:36:11.198Z,11.03
2019-05-07T20:38:38.631Z,11.15
2019-05-07T20:41:06.118Z,11.01
2019-05-07T20:43:33.585Z,11.21
2019-05-07T20:46:02.627Z,11.40
2019-05-07T20:48:28.511Z,11.30
2019-05-07T20:50:56.658Z,11.46
2019-05-07T20:53:29.915Z,11.49
2019-05-07T20:55:58.678Z,11.52
2019-05-07T20:58:27.086Z,11.62
2019-05-07T21:00:54.617Z,11.55
2019-05-07T21:03:23.808Z,11.35
2019-05-07T21:05:52.898Z,11.34
2019-05-07T21:08:19.835Z,11.14
2019-05-07T21:10:47.553Z,11.12
2019-05-07T21:13:27.443Z,11.01
2019-05-07T21:15:42.847Z,10.83
2019-05-07T21:18:12.161Z,10.86
2019-05-07T21:20:37.805Z,10.82
2019-05-07T21:23:05.275Z,11.06
2019-05-07T21:25:42.672Z,10.98
2019-05-07T21:28:02.101Z,11.10
2019-05-07T21:30:27.861Z,10.83
2019-05-07T21:32:55.569Z,11.04
2019-05-07T21:35:23.040Z,10.89
2019-05-07T21:37:52.413Z,10.82
2019-05-07T21:40:18.537Z,10.64
2019-05-07T21:42:45.973Z,10.95
2019-05-07T21:45:13.826Z,10.88
2019-05-07T21:47:41.364Z,10.91
2019-05-07T21:50:08.787Z,10.89
2019-05-07T21:52:39.360Z,10.99
2019-05-07T21:55:07.619Z,11.04
2019-05-07T21:57:40.572Z,11.10
2019-05-07T22:00:23.692Z,11.08
2019-05-07T22:02:52.566Z,10.91
2019-05-07T22:05:18.615Z,10.80
2019-05-07T22:07:46.069Z,10.99
2019-05-07T22:10:13.507Z,10.98
2019-05-07T22:12:40.958Z,10.87
2019-05-07T22:15:08.393Z,10.72
2019-05-07T22:17:35.830Z,10.72
2019-05-07T22:20:03.280Z,10.76
2019-05-07T22:22:32.056Z,10.73
2019-05-07T22:24:58.630Z,10.76
2019-05-07T22:27:26.069Z,10.92
2019-05-07T22:29:53.532Z,10.99
2019-05-07T22:32:37.046Z,11.00
2019-05-07T22:35:14.478Z,10.93
2019-05-07T22:37:41.899Z,10.86
2019-05-07T22:40:09.374Z,10.98
2019-05-07T22:42:36.815Z,11.00
2019-05-07T22:45:04.274Z,10.93
2019-05-07T22:47:32.600Z,10.84
2019-05-07T22:49:59.198Z,10.73
2019-05-07T22:52:26.649Z,10.86
2019-05-07T22:54:54.118Z,10.86
2019-05-07T22:57:24.969Z,10.74
2019-05-07T22:59:52.412Z,10.72
2019-05-07T23:02:22.641Z,10.84
2019-05-07T23:04:47.859Z,10.83
2019-05-07T23:07:15.327Z,10.88
2019-05-07T23:09:44.928Z,10.64
2019-05-07T23:12:12.326Z,10.68
2019-05-07T23:14:37.716Z,10.39
2019-05-07T23:17:05.170Z,10.15
2019-05-07T23:19:32.822Z,10.43
2019-05-07T23:22:00.131Z,10.42
2019-05-07T23:24:27.599Z,10.53
2019-05-07T23:26:55.034Z,10.52
2019-05-07T23:29:22.824Z,10.54
2019-05-07T23:31:49.990Z,10.58
2019-05-07T23:34:17.465Z,10.68
2019-05-07T23:36:44.889Z,10.53
2019-05-07T23:39:12.350Z,10.28
2019-05-07T23:41:42.625Z,10.26
2019-05-07T23:44:12.210Z,10.43
2019-05-07T23:46:37.508Z,10.37
2019-05-07T23:49:04.975Z,10.36
2019-05-07T23:51:32.392Z,10.20
2019-05-07T23:54:02.705Z,10.22
2019-05-07T23:56:27.844Z,9.90
2019-05-07T23:58:55.305Z,10.17
